createdAt,value
2019-02-10T00:00:06.574Z,998.75
2019-02-10T00:01:06.562Z,998.70
2019-02-10T00:02:06.553Z,998.74
2019-02-10T00:03:06.544Z,998.67
2019-02-10T00:04:06.528Z,998.70
2019-02-10T00:05:06.522Z,998.66
2019-02-10T00:06:06.508Z,998.62
2019-02-10T00:07:06.500Z,998.60
2019-02-10T00:08:06.490Z,998.58
2019-02-10T00:09:06.476Z,998.57
2019-02-10T00:10:06.487Z,998.53
2019-02-10T00:11:06.459Z,998.51
2019-02-10T00:12:06.442Z,998.52
2019-02-10T00:13:06.439Z,998.48
2019-02-10T00:14:06.422Z,998.45
2019-02-10T00:15:06.411Z,998.47
2019-02-10T00:16:06.420Z,998.40
2019-02-10T00:17:06.390Z,998.43
2019-02-10T00:18:06.383Z,998.42
2019-02-10T00:19:06.371Z,998.42
2019-02-10T00:20:06.358Z,998.33
2019-02-10T00:21:06.348Z,998.29
2019-02-10T00:22:06.352Z,998.28
2019-02-10T00:23:06.328Z,998.24
2019-02-10T00:24:06.318Z,998.23
2019-02-10T00:25:06.305Z,998.30
2019-02-10T00:26:06.296Z,998.15
2019-02-10T00:27:06.283Z,998.21
2019-02-10T00:28:06.279Z,998.12
2019-02-10T00:29:06.266Z,998.15
2019-02-10T00:30:06.262Z,998.15
2019-02-10T00:31:06.245Z,998.11
2019-02-10T00:32:06.228Z,998.08
2019-02-10T00:33:06.231Z,998.06
2019-02-10T00:34:06.211Z,998.06
2019-02-10T00:35:06.206Z,998.08
2019-02-10T00:36:06.185Z,998.07
2019-02-10T00:37:06.173Z,997.98
2019-02-10T00:38:06.174Z,997.97
2019-02-10T00:39:06.160Z,998.04
2019-02-10T00:40:06.144Z,997.91
2019-02-10T00:41:06.139Z,997.97
2019-02-10T00:42:06.125Z,997.90
2019-02-10T00:43:06.115Z,997.90
2019-02-10T00:44:06.100Z,997.85
2019-02-10T00:45:06.103Z,997.86
2019-02-10T00:46:06.079Z,997.80
2019-02-10T00:47:06.068Z,997.86
2019-02-10T00:48:06.073Z,997.75
2019-02-10T00:49:06.046Z,997.73
2019-02-10T00:50:06.035Z,997.75
2019-02-10T00:51:06.053Z,997.73
2019-02-10T00:52:06.017Z,997.67
2019-02-10T00:53:06.005Z,997.66
2019-02-10T00:54:06.000Z,997.65
2019-02-10T00:55:05.983Z,997.69
2019-02-10T00:56:05.971Z,997.67
2019-02-10T00:57:05.986Z,997.58
2019-02-10T00:58:05.952Z,997.64
2019-02-10T00:59:05.944Z,997.58
2019-02-10T01:00:05.927Z,997.61
2019-02-10T01:01:05.920Z,997.51
2019-02-10T01:02:05.929Z,997.44
2019-02-10T01:03:05.909Z,997.48
2019-02-10T01:04:05.888Z,997.38
2019-02-10T01:05:05.874Z,997.42
2019-02-10T01:06:05.873Z,997.37
2019-02-10T01:07:05.852Z,997.38
2019-02-10T01:08:05.841Z,997.35
2019-02-10T01:09:05.832Z,997.32
2019-02-10T01:10:05.830Z,997.33
2019-02-10T01:11:05.814Z,997.30
2019-02-10T01:12:05.804Z,997.32
2019-02-10T01:13:05.793Z,997.34
2019-02-10T01:14:05.788Z,997.30
2019-02-10T01:15:05.773Z,997.30
2019-02-10T01:16:05.769Z,997.29
2019-02-10T01:17:05.747Z,997.30
2019-02-10T01:18:05.740Z,997.30
2019-02-10T01:19:05.726Z,997.28
2019-02-10T01:20:05.733Z,997.30
2019-02-10T01:21:05.706Z,997.23
2019-02-10T01:22:05.702Z,997.25
2019-02-10T01:23:05.688Z,997.23
2019-02-10T01:24:05.666Z,997.23
2019-02-10T01:25:05.661Z,997.18
2019-02-10T01:26:05.661Z,997.19
2019-02-10T01:27:05.637Z,997.15
2019-02-10T01:28:05.633Z,997.11
2019-02-10T01:29:05.621Z,997.06
2019-02-10T01:30:05.608Z,997.06
2019-02-10T01:31:05.607Z,997.09
2019-02-10T01:32:05.594Z,997.04
2019-02-10T01:33:05.579Z,996.98
2019-02-10T01:34:05.565Z,996.96
2019-02-10T01:35:05.560Z,996.91
2019-02-10T01:36:05.543Z,996.91
2019-02-10T01:37:05.535Z,996.81
2019-02-10T01:38:05.537Z,996.85
2019-02-10T01:39:05.516Z,996.86
2019-02-10T01:40:05.500Z,996.78
2019-02-10T01:41:05.504Z,996.76
2019-02-10T01:42:05.478Z,996.76
2019-02-10T01:43:05.473Z,996.70
2019-02-10T01:44:05.480Z,996.68
2019-02-10T01:45:05.452Z,996.60
2019-02-10T01:46:05.448Z,996.54
2019-02-10T01:47:05.439Z,996.58
2019-02-10T01:48:05.416Z,996.52
2019-02-10T01:49:05.411Z,996.53
2019-02-10T01:50:05.408Z,996.52
2019-02-10T01:51:05.382Z,996.47
2019-02-10T01:52:05.372Z,996.41
2019-02-10T01:53:05.367Z,996.42
2019-02-10T01:54:05.360Z,996.38
2019-02-10T01:55:05.352Z,996.33
2019-02-10T01:56:05.329Z,996.34
2019-02-10T01:57:05.323Z,996.33
2019-02-10T01:58:05.312Z,996.29
2019-02-10T01:59:05.295Z,996.31
2019-02-10T02:00:05.288Z,996.21
2019-02-10T02:01:05.285Z,996.23
2019-02-10T02:02:05.267Z,996.19
2019-02-10T02:03:05.267Z,996.20
2019-02-10T02:04:05.250Z,996.16
2019-02-10T02:05:05.253Z,996.14
2019-02-10T02:06:05.228Z,996.15
2019-02-10T02:07:05.227Z,996.16
2019-02-10T02:08:05.207Z,996.17
2019-02-10T02:09:05.203Z,996.07
2019-02-10T02:10:05.182Z,996.14
2019-02-10T02:11:05.173Z,996.06
2019-02-10T02:12:05.165Z,996.04
2019-02-10T02:13:05.162Z,996.07
2019-02-10T02:14:05.144Z,996.00
2019-02-10T02:15:05.149Z,995.99
2019-02-10T02:16:05.124Z,995.98
2019-02-10T02:17:05.110Z,995.90
2019-02-10T02:18:05.104Z,995.92
2019-02-10T02:19:05.094Z,995.90
2019-02-10T02:20:05.079Z,995.88
2019-02-10T02:21:05.069Z,995.88
2019-02-10T02:22:05.059Z,995.87
2019-02-10T02:23:05.089Z,995.80
2019-02-10T02:24:05.050Z,995.80
2019-02-10T02:25:05.056Z,995.78
2019-02-10T02:26:05.013Z,995.77
2019-02-10T02:27:05.004Z,995.78
2019-02-10T02:28:04.995Z,995.72
2019-02-10T02:29:04.979Z,995.68
2019-02-10T02:30:04.979Z,995.71
2019-02-10T02:31:04.975Z,995.66
2019-02-10T02:32:04.946Z,995.61
2019-02-10T02:33:04.941Z,995.53
2019-02-10T02:34:04.934Z,995.57
2019-02-10T02:35:04.919Z,995.54
2019-02-10T02:36:04.928Z,995.48
2019-02-10T02:37:07.927Z,995.50
2019-02-10T02:38:04.887Z,995.46
2019-02-10T02:39:04.878Z,995.49
2019-02-10T02:40:04.873Z,995.42
2019-02-10T02:41:04.858Z,995.38
2019-02-10T02:42:04.856Z,995.38
2019-02-10T02:43:04.833Z,995.30
2019-02-10T02:44:04.826Z,995.36
2019-02-10T02:45:04.821Z,995.37
2019-02-10T02:46:04.796Z,995.22
2019-02-10T02:47:04.792Z,995.24
2019-02-10T02:48:04.784Z,995.21
2019-02-10T02:49:04.769Z,995.22
2019-02-10T02:50:04.758Z,995.14
2019-02-10T02:51:04.751Z,995.15
2019-02-10T02:52:04.734Z,995.03
2019-02-10T02:53:04.727Z,995.10
2019-02-10T02:54:04.731Z,995.12
2019-02-10T02:55:04.706Z,995.09
2019-02-10T02:56:04.708Z,995.05
2019-02-10T02:57:04.684Z,995.00
2019-02-10T02:58:04.670Z,995.07
2019-02-10T02:59:04.663Z,995.01
2019-02-10T03:00:04.667Z,995.04
2019-02-10T03:01:04.642Z,995.01
2019-02-10T03:02:04.650Z,994.97
2019-02-10T03:03:04.628Z,994.97
2019-02-10T03:04:04.601Z,994.96
2019-02-10T03:05:04.600Z,994.94
2019-02-10T03:06:04.600Z,994.85
2019-02-10T03:07:04.576Z,994.82
2019-02-10T03:08:04.561Z,994.86
2019-02-10T03:09:04.558Z,994.80
2019-02-10T03:10:04.547Z,994.75
2019-02-10T03:11:04.533Z,994.70
2019-02-10T03:12:04.531Z,994.61
2019-02-10T03:13:04.510Z,994.51
2019-02-10T03:14:04.498Z,994.44
2019-02-10T03:15:04.500Z,994.43
2019-02-10T03:16:04.479Z,994.40
2019-02-10T03:17:04.468Z,994.32
2019-02-10T03:18:04.460Z,994.22
2019-02-10T03:19:04.450Z,994.27
2019-02-10T03:20:04.435Z,994.17
2019-02-10T03:21:04.446Z,994.15
2019-02-10T03:22:04.413Z,994.15
2019-02-10T03:23:04.406Z,994.13
2019-02-10T03:24:04.391Z,994.15
2019-02-10T03:25:04.384Z,994.12
2019-02-10T03:26:04.367Z,994.10
2019-02-10T03:27:04.380Z,994.12
2019-02-10T03:28:04.347Z,994.08
2019-02-10T03:29:04.337Z,994.11
2019-02-10T03:30:04.337Z,994.04
2019-02-10T03:31:04.350Z,993.97
2019-02-10T03:32:04.310Z,993.93
2019-02-10T03:33:04.295Z,993.95
2019-02-10T03:34:04.282Z,993.98
2019-02-10T03:35:04.305Z,993.89
2019-02-10T03:36:04.258Z,993.88
2019-02-10T03:37:04.249Z,993.82
2019-02-10T03:38:04.238Z,993.79
2019-02-10T03:39:04.227Z,993.75
2019-02-10T03:40:04.224Z,993.78
2019-02-10T03:41:04.214Z,993.76
2019-02-10T03:42:04.194Z,993.78
2019-02-10T03:43:04.182Z,993.68
2019-02-10T03:44:04.174Z,993.64
2019-02-10T03:45:04.156Z,993.61
2019-02-10T03:46:04.150Z,993.67
2019-02-10T03:47:04.140Z,993.57
2019-02-10T03:48:04.132Z,993.55
2019-02-10T03:49:04.119Z,993.50
2019-02-10T03:50:04.121Z,993.45
2019-02-10T03:51:04.094Z,993.49
2019-02-10T03:52:04.100Z,993.51
2019-02-10T03:53:04.068Z,993.45
2019-02-10T03:54:04.057Z,993.40
2019-02-10T03:55:04.148Z,993.32
2019-02-10T03:56:04.032Z,993.34
2019-02-10T03:57:04.022Z,993.33
2019-02-10T03:58:04.013Z,993.31
2019-02-10T03:59:04.001Z,993.25
2019-02-10T04:00:03.994Z,993.24
2019-02-10T04:01:03.982Z,993.20
2019-02-10T04:02:03.968Z,993.14
2019-02-10T04:03:03.954Z,993.04
2019-02-10T04:04:03.943Z,993.04
2019-02-10T04:05:03.938Z,992.97
2019-02-10T04:06:03.921Z,992.98
2019-02-10T04:07:03.920Z,992.94
2019-02-10T04:08:03.902Z,992.99
2019-02-10T04:09:03.885Z,992.92
2019-02-10T04:10:03.880Z,992.91
2019-02-10T04:11:03.885Z,992.97
2019-02-10T04:12:03.854Z,992.80
2019-02-10T04:13:03.843Z,992.79
2019-02-10T04:14:03.832Z,992.70
2019-02-10T04:15:03.846Z,992.68
2019-02-10T04:16:03.814Z,992.68
2019-02-10T04:17:03.799Z,992.62
2019-02-10T04:18:03.784Z,992.60
2019-02-10T04:19:03.785Z,992.64
2019-02-10T04:20:03.764Z,992.54
2019-02-10T04:21:03.756Z,992.54
2019-02-10T04:22:03.748Z,992.53
2019-02-10T04:23:03.734Z,992.53
2019-02-10T04:24:03.714Z,992.53
2019-02-10T04:25:03.714Z,992.43
2019-02-10T04:26:03.699Z,992.46
2019-02-10T04:27:03.684Z,992.47
2019-02-10T04:28:03.671Z,992.36
2019-02-10T04:29:03.662Z,992.35
2019-02-10T04:30:03.649Z,992.32
2019-02-10T04:31:03.638Z,992.20
2019-02-10T04:32:03.636Z,992.22
2019-02-10T04:33:03.618Z,992.13
2019-02-10T04:34:03.601Z,992.21
2019-02-10T04:35:03.593Z,992.13
2019-02-10T04:36:03.580Z,992.06
2019-02-10T04:37:03.578Z,992.02
2019-02-10T04:38:03.557Z,992.00
2019-02-10T04:39:03.595Z,991.97
2019-02-10T04:40:03.533Z,991.96
2019-02-10T04:41:03.523Z,991.85
2019-02-10T04:42:03.519Z,991.78
2019-02-10T04:43:03.525Z,991.82
2019-02-10T04:44:03.491Z,991.74
2019-02-10T04:45:03.483Z,991.73
2019-02-10T04:46:03.470Z,991.75
2019-02-10T04:47:03.456Z,991.76
2019-02-10T04:48:03.445Z,991.63
2019-02-10T04:49:03.440Z,991.61
2019-02-10T04:50:03.422Z,991.57
2019-02-10T04:51:03.411Z,991.53
2019-02-10T04:52:03.390Z,991.51
2019-02-10T04:53:03.389Z,991.48
2019-02-10T04:54:03.385Z,991.40
2019-02-10T04:55:03.372Z,991.42
2019-02-10T04:56:03.354Z,991.28
2019-02-10T04:57:03.345Z,991.30
2019-02-10T04:58:03.331Z,991.27
2019-02-10T04:59:03.314Z,991.24
2019-02-10T05:00:03.313Z,991.11
2019-02-10T05:01:03.296Z,991.14
2019-02-10T05:02:03.292Z,991.04
2019-02-10T05:03:03.268Z,991.01
2019-02-10T05:04:03.263Z,991.01
2019-02-10T05:05:03.259Z,990.96
2019-02-10T05:06:03.255Z,990.91
2019-02-10T05:07:03.227Z,990.94
2019-02-10T05:08:03.213Z,990.75
2019-02-10T05:09:03.201Z,990.73
2019-02-10T05:10:03.188Z,990.72
2019-02-10T05:11:03.202Z,990.67
2019-02-10T05:12:03.168Z,990.60
2019-02-10T05:13:03.158Z,990.59
2019-02-10T05:14:03.145Z,990.59
2019-02-10T05:15:03.133Z,990.56
2019-02-10T05:16:03.122Z,990.43
2019-02-10T05:17:03.129Z,990.55
2019-02-10T05:18:03.098Z,990.41
2019-02-10T05:19:03.089Z,990.48
2019-02-10T05:20:03.071Z,990.32
2019-02-10T05:21:03.065Z,990.27
2019-02-10T05:22:03.057Z,990.18
2019-02-10T05:23:03.038Z,990.12
2019-02-10T05:24:03.933Z,990.21
2019-02-10T05:25:03.017Z,990.07
2019-02-10T05:26:03.003Z,990.11
2019-02-10T05:27:03.010Z,989.99
2019-02-10T05:28:02.985Z,989.96
2019-02-10T05:29:02.971Z,989.92
2019-02-10T05:30:02.960Z,989.98
2019-02-10T05:31:02.945Z,989.90
2019-02-10T05:32:02.931Z,989.87
2019-02-10T05:33:02.923Z,989.84
2019-02-10T05:34:02.917Z,989.72
2019-02-10T05:35:02.905Z,989.67
2019-02-10T05:36:02.893Z,989.58
2019-02-10T05:37:02.877Z,989.59
2019-02-10T05:38:04.529Z,989.51
2019-02-10T05:39:02.870Z,989.47
2019-02-10T05:40:02.847Z,989.42
2019-02-10T05:41:02.827Z,989.44
2019-02-10T05:42:02.813Z,989.38
2019-02-10T05:43:02.809Z,989.34
2019-02-10T05:44:02.798Z,989.27
2019-02-10T05:45:02.785Z,989.26
2019-02-10T05:46:02.772Z,989.17
2019-02-10T05:47:02.761Z,989.12
2019-02-10T05:48:02.754Z,989.01
2019-02-10T05:49:02.743Z,988.95
2019-02-10T05:50:02.726Z,988.91
2019-02-10T05:51:02.715Z,988.94
2019-02-10T05:52:02.703Z,988.87
2019-02-10T05:53:02.689Z,988.84
2019-02-10T05:54:02.674Z,988.75
2019-02-10T05:55:02.671Z,988.81
2019-02-10T05:56:02.657Z,988.79
2019-02-10T05:57:02.645Z,988.69
2019-02-10T05:58:02.635Z,988.69
2019-02-10T05:59:02.659Z,988.64
2019-02-10T06:00:02.615Z,988.64
2019-02-10T06:01:02.601Z,988.49
2019-02-10T06:02:02.597Z,988.41
2019-02-10T06:03:02.593Z,988.51
2019-02-10T06:04:02.564Z,988.34
2019-02-10T06:05:02.549Z,988.36
2019-02-10T06:06:02.543Z,988.31
2019-02-10T06:07:02.534Z,988.29
2019-02-10T06:08:02.525Z,988.23
2019-02-10T06:09:02.503Z,988.19
2019-02-10T06:10:02.494Z,988.12
2019-02-10T06:11:02.482Z,988.16
2019-02-10T06:12:02.469Z,988.13
2019-02-10T06:13:02.456Z,988.08
2019-02-10T06:14:02.445Z,987.98
2019-02-10T06:15:02.447Z,987.91
2019-02-10T06:16:02.420Z,987.97
2019-02-10T06:17:02.411Z,987.94
2019-02-10T06:18:02.403Z,987.93
2019-02-10T06:19:02.391Z,987.88
2019-02-10T06:20:02.373Z,987.81
2019-02-10T06:21:02.364Z,987.78
2019-02-10T06:22:02.365Z,987.65
2019-02-10T06:23:02.339Z,987.52
2019-02-10T06:24:02.336Z,987.47
2019-02-10T06:25:02.320Z,987.40
2019-02-10T06:26:02.310Z,987.46
2019-02-10T06:27:02.303Z,987.51
2019-02-10T06:28:02.295Z,987.29
2019-02-10T06:29:02.270Z,987.22
2019-02-10T06:30:02.259Z,987.12
2019-02-10T06:31:02.258Z,987.18
2019-02-10T06:32:02.241Z,987.03
2019-02-10T06:33:02.229Z,987.19
2019-02-10T06:34:02.213Z,987.39
2019-02-10T06:35:02.214Z,987.52
2019-02-10T06:36:02.188Z,987.54
2019-02-10T06:37:02.180Z,987.58
2019-02-10T06:38:02.168Z,987.64
2019-02-10T06:39:02.155Z,987.55
2019-02-10T06:40:02.143Z,987.49
2019-02-10T06:41:02.132Z,987.40
2019-02-10T06:42:02.124Z,987.30
2019-02-10T06:43:02.112Z,987.18
2019-02-10T06:44:02.096Z,987.10
2019-02-10T06:45:02.089Z,987.21
2019-02-10T06:46:02.076Z,987.17
2019-02-10T06:47:02.069Z,987.30
2019-02-10T06:48:02.053Z,987.11
2019-02-10T06:49:02.038Z,987.07
2019-02-10T06:50:02.046Z,987.01
2019-02-10T06:51:02.020Z,986.98
2019-02-10T06:52:02.005Z,986.97
2019-02-10T06:53:01.996Z,986.97
2019-02-10T06:54:01.984Z,987.00
2019-02-10T06:55:01.972Z,986.93
2019-02-10T06:56:01.959Z,987.07
2019-02-10T06:57:01.967Z,986.98
2019-02-10T06:58:01.971Z,987.04
2019-02-10T06:59:01.926Z,986.77
2019-02-10T07:00:01.913Z,986.94
2019-02-10T07:01:01.900Z,986.91
2019-02-10T07:02:01.891Z,986.98
2019-02-10T07:03:01.885Z,986.89
2019-02-10T07:04:01.862Z,986.86
2019-02-10T07:05:01.852Z,986.84
2019-02-10T07:06:01.846Z,986.76
2019-02-10T07:07:01.831Z,986.67
2019-02-10T07:08:01.822Z,986.60
2019-02-10T07:09:01.814Z,986.63
2019-02-10T07:10:01.804Z,986.58
2019-02-10T07:11:01.790Z,986.64
2019-02-10T07:12:01.769Z,986.60
2019-02-10T07:13:01.765Z,986.51
2019-02-10T07:14:01.752Z,986.55
2019-02-10T07:15:01.744Z,986.50
2019-02-10T07:16:01.730Z,986.52
2019-02-10T07:17:01.723Z,986.39
2019-02-10T07:18:01.702Z,986.31
2019-02-10T07:19:01.715Z,986.38
2019-02-10T07:20:01.678Z,986.29
2019-02-10T07:21:01.674Z,986.29
2019-02-10T07:22:01.660Z,986.17
2019-02-10T07:23:01.654Z,986.16
2019-02-10T07:24:01.638Z,986.11
2019-02-10T07:25:01.632Z,986.11
2019-02-10T07:26:01.617Z,986.04
2019-02-10T07:27:01.612Z,986.07
2019-02-10T07:28:01.592Z,986.00
2019-02-10T07:29:01.578Z,986.02
2019-02-10T07:30:01.579Z,986.00
2019-02-10T07:31:01.581Z,985.94
2019-02-10T07:32:01.548Z,985.98
2019-02-10T07:33:01.530Z,985.91
2019-02-10T07:34:01.522Z,985.88
2019-02-10T07:35:01.510Z,985.87
2019-02-10T07:36:01.504Z,985.78
2019-02-10T07:37:01.491Z,985.73
2019-02-10T07:38:01.480Z,985.67
2019-02-10T07:39:01.469Z,985.59
2019-02-10T07:40:01.452Z,985.47
2019-02-10T07:41:01.449Z,985.46
2019-02-10T07:42:01.428Z,985.47
2019-02-10T07:43:01.423Z,985.39
2019-02-10T07:44:01.409Z,985.31
2019-02-10T07:45:01.396Z,985.33
2019-02-10T07:46:01.404Z,985.31
2019-02-10T07:47:01.377Z,985.43
2019-02-10T07:48:01.374Z,985.20
2019-02-10T07:49:01.352Z,985.24
2019-02-10T07:50:01.347Z,985.11
2019-02-10T07:51:01.332Z,985.18
2019-02-10T07:52:01.320Z,985.11
2019-02-10T07:53:01.312Z,985.07
2019-02-10T07:54:01.295Z,984.94
2019-02-10T07:55:01.285Z,984.94
2019-02-10T07:56:01.272Z,984.96
2019-02-10T07:57:01.264Z,984.87
2019-02-10T07:58:01.254Z,984.88
2019-02-10T07:59:01.255Z,984.76
2019-02-10T08:00:01.230Z,984.82
2019-02-10T08:01:01.220Z,984.66
2019-02-10T08:02:01.210Z,984.56
2019-02-10T08:03:01.197Z,984.56
2019-02-10T08:04:01.199Z,984.44
2019-02-10T08:05:01.183Z,984.45
2019-02-10T08:06:01.166Z,984.40
2019-02-10T08:07:01.153Z,984.55
2019-02-10T08:08:01.141Z,984.43
2019-02-10T08:09:01.128Z,984.47
2019-02-10T08:10:01.129Z,984.46
2019-02-10T08:11:01.114Z,984.43
2019-02-10T08:12:01.102Z,984.54
2019-02-10T08:13:01.128Z,984.52
2019-02-10T08:14:01.073Z,984.42
2019-02-10T08:15:01.062Z,984.50
2019-02-10T08:16:01.068Z,984.43
2019-02-10T08:17:01.038Z,984.44
2019-02-10T08:18:01.029Z,984.31
2019-02-10T08:19:01.021Z,984.32
2019-02-10T08:20:01.015Z,984.32
2019-02-10T08:21:00.997Z,984.26
2019-02-10T08:22:00.987Z,984.31
2019-02-10T08:23:00.982Z,984.30
2019-02-10T08:24:00.968Z,984.26
2019-02-10T08:25:00.950Z,984.22
2019-02-10T08:26:00.954Z,984.11
2019-02-10T08:27:00.958Z,984.17
2019-02-10T08:28:00.928Z,984.06
2019-02-10T08:29:01.049Z,984.11
2019-02-10T08:30:00.898Z,984.11
2019-02-10T08:31:00.889Z,983.98
2019-02-10T08:32:00.879Z,984.02
2019-02-10T08:33:00.876Z,984.06
2019-02-10T08:34:00.860Z,984.05
2019-02-10T08:35:00.849Z,984.02
2019-02-10T08:36:00.837Z,983.96
2019-02-10T08:37:00.825Z,983.99
2019-02-10T08:38:00.812Z,983.97
2019-02-10T08:39:00.808Z,983.89
2019-02-10T08:40:00.795Z,983.88
2019-02-10T08:41:00.782Z,983.86
2019-02-10T08:42:00.773Z,983.92
2019-02-10T08:43:00.762Z,983.77
2019-02-10T08:44:00.745Z,983.79
2019-02-10T08:45:00.746Z,983.65
2019-02-10T08:46:00.725Z,983.73
2019-02-10T08:47:00.719Z,983.70
2019-02-10T08:48:00.710Z,983.74
2019-02-10T08:49:00.696Z,983.63
2019-02-10T08:50:00.685Z,983.70
2019-02-10T08:51:00.673Z,983.82
2019-02-10T08:52:00.660Z,983.70
2019-02-10T08:53:00.654Z,983.58
2019-02-10T08:54:00.646Z,983.64
2019-02-10T08:55:02.420Z,983.46
2019-02-10T08:56:00.621Z,983.43
2019-02-10T08:57:00.613Z,983.39
2019-02-10T08:58:00.604Z,983.44
2019-02-10T08:59:00.590Z,983.38
2019-02-10T09:00:00.737Z,983.38
2019-02-10T09:01:00.573Z,983.44
2019-02-10T09:02:00.559Z,983.37
2019-02-10T09:03:00.550Z,983.36
2019-02-10T09:04:00.539Z,983.34
2019-02-10T09:05:00.527Z,983.21
2019-02-10T09:06:00.517Z,983.31
2019-02-10T09:07:00.508Z,983.37
2019-02-10T09:08:00.499Z,983.16
2019-02-10T09:09:02.674Z,983.05
2019-02-10T09:10:00.484Z,983.03
2019-02-10T09:11:00.468Z,983.13
2019-02-10T09:12:00.470Z,983.19
2019-02-10T09:13:00.456Z,983.10
2019-02-10T09:14:00.435Z,983.12
2019-02-10T09:15:00.422Z,983.14
2019-02-10T09:16:00.421Z,982.92
2019-02-10T09:17:00.402Z,983.12
2019-02-10T09:18:00.394Z,983.11
2019-02-10T09:19:00.458Z,983.03
2019-02-10T09:20:00.380Z,983.04
2019-02-10T09:21:00.357Z,983.00
2019-02-10T09:22:00.353Z,982.99
2019-02-10T09:23:00.342Z,982.90
2019-02-10T09:24:00.328Z,982.90
2019-02-10T09:25:00.320Z,982.90
2019-02-10T09:26:00.313Z,983.00
2019-02-10T09:27:00.301Z,982.97
2019-02-10T09:28:00.290Z,982.82
2019-02-10T09:29:00.283Z,982.86
2019-02-10T09:30:00.266Z,982.85
2019-02-10T09:31:00.259Z,982.80
2019-02-10T09:32:00.262Z,982.73
2019-02-10T09:33:00.240Z,982.78
2019-02-10T09:34:00.235Z,982.70
2019-02-10T09:35:00.309Z,982.78
2019-02-10T09:36:00.210Z,982.75
2019-02-10T09:37:00.492Z,982.74
2019-02-10T09:38:01.078Z,982.81
2019-02-10T09:39:00.178Z,982.80
2019-02-10T09:40:00.256Z,982.74
2019-02-10T09:41:00.158Z,982.78
2019-02-10T09:42:00.148Z,982.68
2019-02-10T09:43:00.142Z,982.71
2019-02-10T09:44:00.276Z,982.69
2019-02-10T09:45:00.202Z,982.72
2019-02-10T09:46:00.146Z,982.73
2019-02-10T09:47:00.098Z,982.66
2019-02-10T09:48:00.106Z,982.67
2019-02-10T09:49:00.103Z,982.64
2019-02-10T09:50:00.259Z,982.74
2019-02-10T09:51:00.061Z,982.67
2019-02-10T09:52:00.054Z,982.65
2019-02-10T09:53:00.039Z,982.70
2019-02-10T09:54:00.030Z,982.60
2019-02-10T09:55:00.015Z,982.56
2019-02-10T09:56:00.004Z,982.66
2019-02-10T09:57:00.006Z,982.56
2019-02-10T09:57:59.998Z,982.52
2019-02-10T09:58:59.979Z,982.49
2019-02-10T09:59:59.978Z,982.54
2019-02-10T10:00:59.997Z,982.68
2019-02-10T10:01:59.947Z,982.63
2019-02-10T10:02:59.947Z,982.56
2019-02-10T10:03:59.937Z,982.59
2019-02-10T10:04:59.917Z,982.50
2019-02-10T10:05:59.924Z,982.49
2019-02-10T10:06:59.901Z,982.53
2019-02-10T10:07:59.889Z,982.43
2019-02-10T10:08:59.885Z,982.51
2019-02-10T10:09:59.872Z,982.50
2019-02-10T10:10:59.861Z,982.57
2019-02-10T10:11:59.854Z,982.44
2019-02-10T10:12:59.841Z,982.46
2019-02-10T10:13:59.827Z,982.56
2019-02-10T10:14:59.820Z,982.51
2019-02-10T10:15:59.816Z,982.48
2019-02-10T10:16:59.803Z,982.47
2019-02-10T10:17:59.791Z,982.46
2019-02-10T10:18:59.781Z,982.47
2019-02-10T10:19:59.767Z,982.48
2019-02-10T10:20:59.767Z,982.41
2019-02-10T10:21:59.747Z,982.43
2019-02-10T10:22:59.749Z,982.35
2019-02-10T10:23:59.934Z,982.37
2019-02-10T10:25:00.698Z,982.32
2019-02-10T10:25:59.729Z,982.30
2019-02-10T10:26:59.707Z,982.39
2019-02-10T10:27:59.689Z,982.31
2019-02-10T10:28:59.705Z,982.36
2019-02-10T10:29:59.677Z,982.26
2019-02-10T10:30:59.670Z,982.29
2019-02-10T10:31:59.664Z,982.17
2019-02-10T10:32:59.646Z,982.27
2019-02-10T10:33:59.635Z,982.08
2019-02-10T10:34:59.631Z,982.19
2019-02-10T10:35:59.613Z,982.20
2019-02-10T10:36:59.609Z,982.29
2019-02-10T10:37:59.594Z,982.11
2019-02-10T10:38:59.589Z,982.12
2019-02-10T10:39:59.582Z,982.12
2019-02-10T10:40:59.568Z,982.07
2019-02-10T10:41:59.554Z,982.02
2019-02-10T10:42:59.554Z,981.98
2019-02-10T10:43:59.532Z,982.15
2019-02-10T10:44:59.546Z,981.94
2019-02-10T10:46:00.746Z,982.03
2019-02-10T10:46:59.507Z,981.87
2019-02-10T10:47:59.497Z,981.97
2019-02-10T10:48:59.485Z,981.97
2019-02-10T10:49:59.478Z,981.83
2019-02-10T10:50:59.476Z,982.16
2019-02-10T10:51:59.473Z,981.88
2019-02-10T10:52:59.450Z,981.95
2019-02-10T10:53:59.441Z,981.97
2019-02-10T10:54:59.430Z,981.96
2019-02-10T10:55:59.416Z,981.91
2019-02-10T10:56:59.413Z,982.03
2019-02-10T10:57:59.414Z,982.04
2019-02-10T10:58:59.387Z,982.06
2019-02-10T10:59:59.382Z,982.09
2019-02-10T11:00:59.373Z,982.05
2019-02-10T11:01:59.358Z,982.03
2019-02-10T11:02:59.353Z,981.92
2019-02-10T11:03:59.340Z,981.94
2019-02-10T11:04:59.334Z,981.95
2019-02-10T11:05:59.333Z,981.98
2019-02-10T11:06:59.311Z,981.98
2019-02-10T11:07:59.301Z,981.93
2019-02-10T11:08:59.293Z,982.02
2019-02-10T11:10:00.039Z,981.83
2019-02-10T11:10:59.273Z,981.85
2019-02-10T11:11:59.264Z,981.98
2019-02-10T11:12:59.252Z,981.85
2019-02-10T11:13:59.255Z,981.75
2019-02-10T11:14:59.238Z,981.75
2019-02-10T11:15:59.227Z,981.76
2019-02-10T11:16:59.215Z,981.76
2019-02-10T11:17:59.217Z,981.69
2019-02-10T11:18:59.196Z,981.75
2019-02-10T11:19:59.189Z,981.73
2019-02-10T11:20:59.175Z,981.69
2019-02-10T11:21:59.167Z,981.69
2019-02-10T11:22:59.176Z,981.67
2019-02-10T11:23:59.149Z,981.62
2019-02-10T11:24:59.145Z,981.57
2019-02-10T11:25:59.130Z,981.60
2019-02-10T11:26:59.116Z,981.62
2019-02-10T11:27:59.119Z,981.68
2019-02-10T11:28:59.094Z,981.66
2019-02-10T11:29:59.088Z,981.65
2019-02-10T11:30:59.081Z,981.62
2019-02-10T11:31:59.069Z,981.61
2019-02-10T11:32:59.060Z,981.61
2019-02-10T11:33:59.048Z,981.58
2019-02-10T11:34:59.040Z,981.52
2019-02-10T11:35:59.032Z,981.47
2019-02-10T11:36:59.025Z,981.41
2019-02-10T11:37:59.012Z,981.59
2019-02-10T11:38:59.000Z,981.61
2019-02-10T11:39:58.988Z,981.52
2019-02-10T11:40:58.986Z,981.55
2019-02-10T11:41:58.969Z,981.47
2019-02-10T11:43:00.073Z,981.47
2019-02-10T11:43:58.948Z,981.45
2019-02-10T11:44:58.939Z,981.42
2019-02-10T11:45:58.932Z,981.42
2019-02-10T11:46:58.922Z,981.33
2019-02-10T11:47:58.911Z,981.33
2019-02-10T11:48:58.904Z,981.32
2019-02-10T11:49:58.894Z,981.34
2019-02-10T11:51:00.412Z,981.49
2019-02-10T11:51:58.870Z,981.34
2019-02-10T11:52:58.892Z,981.33
2019-02-10T11:53:58.854Z,981.25
2019-02-10T11:54:58.841Z,981.28
2019-02-10T11:55:58.834Z,981.14
2019-02-10T11:56:58.830Z,981.26
2019-02-10T11:57:58.860Z,981.26
2019-02-10T11:58:58.801Z,981.41
2019-02-10T11:59:58.795Z,981.28
2019-02-10T12:00:58.789Z,981.20
2019-02-10T12:01:58.774Z,981.18
2019-02-10T12:02:58.764Z,981.22
2019-02-10T12:03:58.754Z,981.22
2019-02-10T12:04:58.743Z,981.15
2019-02-10T12:05:58.739Z,981.17
2019-02-10T12:06:58.725Z,981.08
2019-02-10T12:07:58.718Z,981.16
2019-02-10T12:08:58.710Z,981.11
2019-02-10T12:09:58.697Z,981.20
2019-02-10T12:10:58.687Z,981.14
2019-02-10T12:11:58.679Z,981.13
2019-02-10T12:12:58.672Z,981.15
2019-02-10T12:13:58.737Z,981.14
2019-02-10T12:14:58.656Z,981.06
2019-02-10T12:15:58.640Z,981.11
2019-02-10T12:16:58.656Z,981.14
2019-02-10T12:17:58.623Z,981.14
2019-02-10T12:18:58.621Z,981.24
2019-02-10T12:19:58.603Z,981.14
2019-02-10T12:20:58.587Z,981.22
2019-02-10T12:21:58.589Z,981.14
2019-02-10T12:22:58.575Z,981.08
2019-02-10T12:23:58.570Z,981.08
2019-02-10T12:24:58.556Z,981.11
2019-02-10T12:25:58.551Z,981.20
2019-02-10T12:26:58.540Z,981.19
2019-02-10T12:27:58.671Z,981.15